الصفحة الرئيسية
METAR-TAF:

METAR-TAF

مطار :

Saint Vincent, سانت فنسينت والجرينادينز

دائرة عرض: 13-09-23N, خط طول: 061-09-01W, ارتفاع: 41 متر

مراقبة الطقس الحالي

تاريخ ووقت الإصدار 7ساعات و 39 دقيقة قبل الساعة 23:00UTC
ريح 5 عقدة من الشرق/الشمال الشرقي
درجة الحرارة 28°درجة مئوية
الرطوبة 84%
ضغط 1013 hPa
الرؤية 10 كم أو أكثر
غيوم متفرقة على ارتفاع 1800 قدم

METAR: TVSA 172300Z 06005KT 9999 SCT018 28/25 Q1013 NOSIG

زمن: 02:39 (06:39 UTC)

توقعات

تاريخ ووقت الإصدار 1ساعة و 39 دقيقة قبل الساعة 05:00UTC
التوقعات صالحة من18 الساعة 06 UTC إلى 19 الساعة 06 UTC
ريح 12 عقدة من الشمال الشرقي
الرؤية 10 كم أو أكثر
غيوم متفرقة على ارتفاع 1800 قدم

TAF: TVSA 180500Z 1806/1906 05012KT 9999 SCT018

أرصاد الطقس والتوقعات من أكثر من 4000 مطار (تقارير الطقس للمطار METAR والتنبؤ بالطقس بالمطارTAF).

المحطات المتاحة هي النقط الصفراء والحمراء على الخريطة.

حرك المؤشر فوق النقطة لمعرفة اسم المحطة.

ثم انقر لمعرفة أرصاد وتوقعات الطقس.

لتغيير الخارطة: اضغط على الأزرار الخضراء مع رمز الصليب الأسود للتكبير. على الزر الأخضر مع شرطة للتصغير، أو على الأسهم الخضراء للخرائط المجاورة.


METAR-TAF: